createdAt,value
2023-01-05T00:00:44.000Z,3.6
2023-01-05T00:04:23.000Z,6.3
2023-01-05T00:07:55.000Z,4
2023-01-05T00:11:28.000Z,5.3
2023-01-05T00:15:01.000Z,3.7
2023-01-05T00:18:33.000Z,4.1
2023-01-05T00:21:24.000Z,5
2023-01-05T00:24:57.000Z,3.4
2023-01-05T00:28:37.000Z,3.5
2023-01-05T00:32:09.000Z,3
2023-01-05T00:35:42.000Z,3.1
2023-01-05T00:39:14.000Z,5.4
2023-01-05T00:42:47.000Z,3
2023-01-05T00:46:20.000Z,3.3
2023-01-05T00:49:53.000Z,2.9
2023-01-05T00:53:25.000Z,3
2023-01-05T00:56:58.000Z,2.4
2023-01-05T00:59:49.000Z,3.4
2023-01-05T01:03:22.000Z,3.7
2023-01-05T01:06:55.000Z,3.7
2023-01-05T01:10:27.000Z,3.2
2023-01-05T01:14:00.000Z,5.7
2023-01-05T01:17:32.000Z,7.5
2023-01-05T01:21:05.000Z,6.1
2023-01-05T01:24:38.000Z,6
2023-01-05T01:28:10.000Z,8.6
2023-01-05T01:31:43.000Z,5.7
2023-01-05T01:35:16.000Z,6.5
2023-01-05T01:38:07.000Z,7.5
2023-01-05T01:41:39.000Z,8.2
2023-01-05T01:45:12.000Z,7.6
2023-01-05T01:48:45.000Z,8
2023-01-05T01:52:17.000Z,7.1
2023-01-05T01:55:50.000Z,9.3
2023-01-05T01:59:23.000Z,10.6
2023-01-05T02:02:56.000Z,10.1
2023-01-05T02:06:28.000Z,10.5
2023-01-05T02:10:01.000Z,11
2023-01-05T02:13:34.000Z,9.9
2023-01-05T02:16:25.000Z,12.8
2023-01-05T02:19:58.000Z,11.6
2023-01-05T02:23:30.000Z,9.5
2023-01-05T02:27:03.000Z,11.8
2023-01-05T02:30:36.000Z,8.6
2023-01-05T02:34:08.000Z,12
2023-01-05T02:37:41.000Z,12.3
2023-01-05T02:41:14.000Z,9.6
2023-01-05T02:44:46.000Z,13.9
2023-01-05T02:48:19.000Z,11.7
2023-01-05T02:51:52.000Z,11.6
2023-01-05T02:54:43.000Z,15.3
2023-01-05T02:58:15.000Z,19
2023-01-05T03:01:48.000Z,15.6
2023-01-05T03:05:21.000Z,13
2023-01-05T03:08:54.000Z,12.4
2023-01-05T03:12:26.000Z,15.5
2023-01-05T03:15:59.000Z,13.9
2023-01-05T03:19:32.000Z,13.5
2023-01-05T03:23:05.000Z,13.1
2023-01-05T03:26:37.000Z,16.9
2023-01-05T03:30:10.000Z,13.8
2023-01-05T03:33:01.000Z,17.1
2023-01-05T03:36:34.000Z,16
2023-01-05T03:40:12.000Z,17.5
2023-01-05T03:43:44.000Z,17.4
2023-01-05T03:47:17.000Z,16.7
2023-01-05T03:50:50.000Z,15.2
2023-01-05T03:54:22.000Z,19.2
2023-01-05T03:57:55.000Z,16.2
2023-01-05T04:01:27.000Z,16.3
2023-01-05T04:05:00.000Z,21.3
2023-01-05T04:08:33.000Z,21.2
2023-01-05T04:11:24.000Z,16.8
2023-01-05T04:14:57.000Z,16.7
2023-01-05T04:18:30.000Z,20.8
2023-01-05T04:22:03.000Z,18.7
2023-01-05T04:25:36.000Z,20.2
2023-01-05T04:29:08.000Z,20.2
2023-01-05T04:32:41.000Z,21.3
2023-01-05T04:36:14.000Z,18.2
2023-01-05T04:39:46.000Z,21
2023-01-05T04:43:19.000Z,17.5
2023-01-05T04:46:51.000Z,22
2023-01-05T04:49:42.000Z,20.4
2023-01-05T04:53:15.000Z,18.1
2023-01-05T04:56:48.000Z,19.1
2023-01-05T05:00:21.000Z,19.9
2023-01-05T05:03:53.000Z,18.7
2023-01-05T05:07:26.000Z,19.7
2023-01-05T05:10:59.000Z,22.3
2023-01-05T05:14:32.000Z,20.2
2023-01-05T05:18:04.000Z,22.3
2023-01-05T05:21:37.000Z,21.2
2023-01-05T05:25:10.000Z,23.2
2023-01-05T05:28:01.000Z,20.2
2023-01-05T05:31:34.000Z,19.4
2023-01-05T05:35:07.000Z,21.1
2023-01-05T05:38:39.000Z,18.8
2023-01-05T05:42:12.000Z,22.9
2023-01-05T05:45:44.000Z,18.7
2023-01-05T05:49:17.000Z,17.5
2023-01-05T05:52:50.000Z,19.8
2023-01-05T05:56:22.000Z,15.8
2023-01-05T05:59:55.000Z,19.5
2023-01-05T06:03:28.000Z,16.2
2023-01-05T06:06:19.000Z,22.4
2023-01-05T06:09:52.000Z,16.7
2023-01-05T06:13:25.000Z,21.2
2023-01-05T06:16:58.000Z,21
2023-01-05T06:20:30.000Z,16.7
2023-01-05T06:24:03.000Z,16.3
2023-01-05T06:27:36.000Z,21
2023-01-05T06:31:08.000Z,19.4
2023-01-05T06:34:41.000Z,21
2023-01-05T06:38:14.000Z,19.7
2023-01-05T06:41:46.000Z,19.7
2023-01-05T06:44:38.000Z,16.2
2023-01-05T06:48:11.000Z,15
2023-01-05T06:51:43.000Z,18.4
2023-01-05T06:55:16.000Z,16.2
2023-01-05T06:58:49.000Z,13.4
2023-01-05T07:02:22.000Z,17.4
2023-01-05T07:05:54.000Z,17.1
2023-01-05T07:09:27.000Z,19.9
2023-01-05T07:13:00.000Z,22.1
2023-01-05T07:16:33.000Z,21.3
2023-01-05T07:20:06.000Z,19.1
2023-01-05T07:22:57.000Z,15.6
2023-01-05T07:26:30.000Z,14.9
2023-01-05T07:30:02.000Z,20.1
2023-01-05T07:33:35.000Z,12.8
2023-01-05T07:37:08.000Z,15.5
2023-01-05T07:40:40.000Z,14.6
2023-01-05T07:44:13.000Z,15.7
2023-01-05T07:47:46.000Z,14.9
2023-01-05T07:51:18.000Z,16.2
2023-01-05T07:54:51.000Z,14.4
2023-01-05T07:58:24.000Z,14.8
2023-01-05T08:01:15.000Z,15.5
2023-01-05T08:04:48.000Z,17
2023-01-05T08:08:21.000Z,18.4
2023-01-05T08:11:53.000Z,22.6
2023-01-05T08:15:26.000Z,16.2
2023-01-05T08:18:59.000Z,19.2
2023-01-05T08:22:36.000Z,16.6
2023-01-05T08:26:09.000Z,18.4
2023-01-05T08:29:42.000Z,19.7
2023-01-05T08:33:15.000Z,23.6
2023-01-05T08:36:54.000Z,15.9
2023-01-05T08:39:45.000Z,20.4
2023-01-05T08:43:18.000Z,15.7
2023-01-05T08:46:50.000Z,21.5
2023-01-05T08:50:23.000Z,24.5
2023-01-05T08:53:56.000Z,22.1
2023-01-05T08:57:29.000Z,19.9
2023-01-05T09:01:01.000Z,18.6
2023-01-05T09:04:34.000Z,22.3
2023-01-05T09:08:07.000Z,14.6
2023-01-05T09:11:40.000Z,13.3
2023-01-05T09:15:12.000Z,16
2023-01-05T09:18:04.000Z,17.7
2023-01-05T09:21:36.000Z,13.7
2023-01-05T09:25:09.000Z,16.2
2023-01-05T09:28:42.000Z,15.4
2023-01-05T09:32:14.000Z,14
2023-01-05T09:35:47.000Z,9.8
2023-01-05T09:39:20.000Z,10.7
2023-01-05T09:42:52.000Z,11.2
2023-01-05T09:46:25.000Z,14.7
2023-01-05T09:49:58.000Z,17.3
2023-01-05T09:53:30.000Z,15.1
2023-01-05T09:56:22.000Z,13.6
2023-01-05T10:00:34.000Z,16.9
2023-01-05T10:04:06.000Z,16.3
2023-01-05T10:07:39.000Z,17.4
2023-01-05T10:11:12.000Z,18.7
2023-01-05T10:14:45.000Z,16.1
2023-01-05T10:18:17.000Z,26.2
2023-01-05T10:21:50.000Z,18.2
2023-01-05T10:25:23.000Z,17
2023-01-05T10:31:30.000Z,14.9
2023-01-05T10:35:25.000Z,15.6
2023-01-05T10:38:38.000Z,18
2023-01-05T10:42:11.000Z,17.5
2023-01-05T10:45:43.000Z,15.9
2023-01-05T10:49:57.000Z,21.9
2023-01-05T10:53:30.000Z,21
2023-01-05T10:57:02.000Z,21
2023-01-05T11:00:35.000Z,22.7
2023-01-05T11:04:08.000Z,15.6
2023-01-05T11:08:00.000Z,19
2023-01-05T11:11:33.000Z,15.8
2023-01-05T11:15:06.000Z,13.1
2023-01-05T11:17:57.000Z,13.4
2023-01-05T11:21:30.000Z,14.6
2023-01-05T11:25:02.000Z,16.9
2023-01-05T11:28:35.000Z,15.7
2023-01-05T11:32:08.000Z,14.8
2023-01-05T11:35:40.000Z,12.1
2023-01-05T11:39:13.000Z,15.2
2023-01-05T11:42:46.000Z,17.8
2023-01-05T11:46:18.000Z,15.1
2023-01-05T11:49:51.000Z,18.7
2023-01-05T11:53:26.000Z,15.8
2023-01-05T11:56:17.000Z,20
2023-01-05T11:59:58.000Z,17.4
2023-01-05T12:03:31.000Z,14.1
2023-01-05T12:07:03.000Z,12.3
2023-01-05T12:10:36.000Z,13.9
2023-01-05T12:14:09.000Z,18.7
2023-01-05T12:17:42.000Z,19
2023-01-05T12:21:14.000Z,15
2023-01-05T12:24:47.000Z,13.3
2023-01-05T12:28:20.000Z,16.1
2023-01-05T12:35:57.000Z,19.2
2023-01-05T12:39:30.000Z,19.4
2023-01-05T12:43:03.000Z,17.1
2023-01-05T12:46:35.000Z,19.6
2023-01-05T12:50:08.000Z,21.1
2023-01-05T12:53:41.000Z,22.5
2023-01-05T12:57:14.000Z,20.7
2023-01-05T13:00:52.000Z,22.1
2023-01-05T13:04:25.000Z,20.6
2023-01-05T13:08:06.000Z,16.9
2023-01-05T13:11:39.000Z,16.4
2023-01-05T13:14:30.000Z,22.8
2023-01-05T13:18:03.000Z,22.7
2023-01-05T13:21:36.000Z,21.4
2023-01-05T13:25:08.000Z,22.8
2023-01-05T13:28:41.000Z,17.3
2023-01-05T13:32:14.000Z,24.4
2023-01-05T13:35:47.000Z,21
2023-01-05T13:39:19.000Z,24.4
2023-01-05T13:42:52.000Z,21.8
2023-01-05T13:46:24.000Z,20.6
2023-01-05T13:49:59.000Z,23.7
2023-01-05T13:52:50.000Z,15.9
2023-01-05T13:56:23.000Z,19.6
2023-01-05T13:59:56.000Z,24.2
2023-01-05T14:03:35.000Z,20.5
2023-01-05T14:07:07.000Z,15.3
2023-01-05T14:10:40.000Z,21.9
2023-01-05T14:14:13.000Z,22.2
2023-01-05T14:17:46.000Z,21.4
2023-01-05T14:21:18.000Z,21.1
2023-01-05T14:24:51.000Z,23.5
2023-01-05T14:28:24.000Z,27.8
2023-01-05T14:31:15.000Z,17.2
2023-01-05T14:38:20.000Z,21.5
2023-01-05T14:42:02.000Z,23.8
2023-01-05T14:45:35.000Z,21.4
2023-01-05T14:49:08.000Z,26.7
2023-01-05T14:52:40.000Z,21.7
2023-01-05T14:56:13.000Z,19.3
2023-01-05T14:59:46.000Z,21.6
2023-01-05T15:03:18.000Z,24.1
2023-01-05T15:06:51.000Z,25.5
2023-01-05T15:09:42.000Z,24.9
2023-01-05T15:13:15.000Z,20.6
2023-01-05T15:16:47.000Z,24.3
2023-01-05T15:20:20.000Z,22.5
2023-01-05T15:23:53.000Z,23
2023-01-05T15:27:25.000Z,20.6
2023-01-05T15:30:58.000Z,18.7
2023-01-05T15:34:31.000Z,18.5
2023-01-05T15:38:04.000Z,20.1
2023-01-05T15:41:36.000Z,22.2
2023-01-05T15:45:09.000Z,23.3
2023-01-05T15:48:00.000Z,24.1
2023-01-05T15:51:34.000Z,16.6
2023-01-05T15:55:08.000Z,18.6
2023-01-05T15:58:40.000Z,20.5
2023-01-05T16:02:13.000Z,16.3
2023-01-05T16:05:46.000Z,21.6
2023-01-05T16:09:18.000Z,22.1
2023-01-05T16:12:51.000Z,19.4
2023-01-05T16:16:24.000Z,23.3
2023-01-05T16:20:17.000Z,19.4
2023-01-05T16:23:50.000Z,19.6
2023-01-05T16:26:41.000Z,17.4
2023-01-05T16:30:13.000Z,16.6
2023-01-05T16:33:46.000Z,21.1
2023-01-05T16:37:19.000Z,14.4
2023-01-05T16:40:51.000Z,15.1
2023-01-05T16:44:24.000Z,17.3
2023-01-05T16:47:57.000Z,17.7
2023-01-05T16:51:29.000Z,14.4
2023-01-05T16:55:02.000Z,22.1
2023-01-05T16:58:37.000Z,16.1
2023-01-05T17:02:10.000Z,13.7
2023-01-05T17:05:00.000Z,10.8
2023-01-05T17:08:33.000Z,11.3
2023-01-05T17:12:06.000Z,16.9
2023-01-05T17:15:38.000Z,14.1
2023-01-05T17:19:11.000Z,12.2
2023-01-05T17:22:44.000Z,14.9
2023-01-05T17:26:16.000Z,20.5
2023-01-05T17:33:22.000Z,12.7
2023-01-05T17:36:54.000Z,15.7
2023-01-05T17:40:27.000Z,21.6
2023-01-05T17:43:18.000Z,15.4
2023-01-05T17:46:51.000Z,17.4
2023-01-05T17:53:57.000Z,18.4
2023-01-05T17:57:30.000Z,28.7
2023-01-05T18:01:02.000Z,27.5
2023-01-05T18:04:35.000Z,24.6
2023-01-05T18:08:08.000Z,64.4
2023-01-05T18:11:41.000Z,22.2
2023-01-05T18:15:21.000Z,44.6
2023-01-05T18:18:54.000Z,15.3
2023-01-05T18:21:45.000Z,17.5
2023-01-05T18:25:17.000Z,40.8
2023-01-05T18:28:54.000Z,20.5
2023-01-05T18:32:27.000Z,20.1
2023-01-05T18:39:32.000Z,15.6
2023-01-05T18:43:04.000Z,17.4
2023-01-05T18:46:37.000Z,23.3
2023-01-05T18:50:10.000Z,24.4
2023-01-05T18:53:43.000Z,31
2023-01-05T18:57:15.000Z,28.6
2023-01-05T19:00:07.000Z,25.5
2023-01-05T19:03:39.000Z,36.6
2023-01-05T19:07:12.000Z,29.7
2023-01-05T19:10:45.000Z,22.5
2023-01-05T19:14:17.000Z,29.2
2023-01-05T19:17:50.000Z,26.8
2023-01-05T19:21:23.000Z,24.1
2023-01-05T19:24:56.000Z,23.5
2023-01-05T19:28:28.000Z,26.2
2023-01-05T19:32:01.000Z,27
2023-01-05T19:35:34.000Z,30
2023-01-05T19:38:25.000Z,32.2
2023-01-05T19:41:57.000Z,27.9
2023-01-05T19:45:30.000Z,28.8
2023-01-05T19:49:03.000Z,20.1
2023-01-05T19:52:35.000Z,21.2
2023-01-05T19:56:08.000Z,24.6
2023-01-05T19:59:40.000Z,28
2023-01-05T20:03:16.000Z,29.3
2023-01-05T20:06:49.000Z,28.9
2023-01-05T20:10:21.000Z,25.3
2023-01-05T20:14:11.000Z,20.7
2023-01-05T20:17:02.000Z,24
2023-01-05T20:20:35.000Z,18.3
2023-01-05T20:24:08.000Z,15.7
2023-01-05T20:27:40.000Z,13
2023-01-05T20:31:13.000Z,17.2
2023-01-05T20:34:46.000Z,18.3
2023-01-05T20:38:18.000Z,16.8
2023-01-05T20:41:51.000Z,26.7
2023-01-05T20:45:24.000Z,19.6
2023-01-05T20:48:56.000Z,21.3
2023-01-05T20:52:29.000Z,21.5
2023-01-05T20:55:20.000Z,18.6
2023-01-05T20:58:53.000Z,18.2
2023-01-05T21:02:25.000Z,18.9
2023-01-05T21:05:58.000Z,16.1
2023-01-05T21:09:31.000Z,21.4
2023-01-05T21:13:04.000Z,14.2
2023-01-05T21:16:57.000Z,21.4
2023-01-05T21:20:30.000Z,17.2
2023-01-05T21:24:03.000Z,19.8
2023-01-05T21:28:06.000Z,20.4
2023-01-05T21:31:39.000Z,21.8
2023-01-05T21:34:30.000Z,28.6
2023-01-05T21:38:03.000Z,23.9
2023-01-05T21:41:36.000Z,19.2
2023-01-05T21:45:08.000Z,22.2
2023-01-05T21:48:41.000Z,21.5
2023-01-05T21:52:14.000Z,16.6
2023-01-05T21:55:46.000Z,26.9
2023-01-05T21:59:19.000Z,28
2023-01-05T22:02:52.000Z,30.8
2023-01-05T22:06:24.000Z,26.5
2023-01-05T22:09:57.000Z,28.8
2023-01-05T22:12:48.000Z,32.5
2023-01-05T22:16:21.000Z,28.1
2023-01-05T22:19:54.000Z,32.2
2023-01-05T22:23:26.000Z,35.3
2023-01-05T22:26:59.000Z,29.9
2023-01-05T22:30:32.000Z,39.8
2023-01-05T22:34:04.000Z,39.4
2023-01-05T22:37:37.000Z,35.6
2023-01-05T22:41:10.000Z,36.8
2023-01-05T22:44:42.000Z,34.5
2023-01-05T22:48:15.000Z,32.1
2023-01-05T22:51:06.000Z,31.5
2023-01-05T22:54:39.000Z,30.1
2023-01-05T22:58:12.000Z,31.6
2023-01-05T23:01:44.000Z,27.4
2023-01-05T23:05:17.000Z,28.3
2023-01-05T23:08:49.000Z,26.7
2023-01-05T23:12:22.000Z,24.4
2023-01-05T23:15:55.000Z,20.5
2023-01-05T23:19:27.000Z,23.1
2023-01-05T23:23:01.000Z,23.3
2023-01-05T23:26:34.000Z,17.8
2023-01-05T23:29:25.000Z,18.9
2023-01-05T23:32:58.000Z,16.4
2023-01-05T23:36:31.000Z,14.2
2023-01-05T23:40:03.000Z,17.1
2023-01-05T23:43:36.000Z,14.8
2023-01-05T23:47:09.000Z,14
2023-01-05T23:50:41.000Z,12.7
2023-01-05T23:54:14.000Z,14.9
2023-01-05T23:57:47.000Z,9.5
